sensor_id;sensor_type;location;lat;lon;timestamp;P1;durP1;ratioP1;P2;durP2;ratioP2
4686;SDS011;2357;47.316;-1.348;2023-04-01T00:00:44;17.37;;;3.77;;
4686;SDS011;2357;47.316;-1.348;2023-04-01T00:03:10;13.83;;;2.43;;
4686;SDS011;2357;47.316;-1.348;2023-04-01T00:05:36;22.37;;;2.77;;
4686;SDS011;2357;47.316;-1.348;2023-04-01T00:08:02;13.77;;;3.43;;
4686;SDS011;2357;47.316;-1.348;2023-04-01T00:10:27;11.20;;;2.40;;
4686;SDS011;2357;47.316;-1.348;2023-04-01T00:12:53;21.43;;;3.40;;
4686;SDS011;2357;47.316;-1.348;2023-04-01T00:15:18;15.63;;;3.40;;
4686;SDS011;2357;47.316;-1.348;2023-04-01T00:17:44;13.23;;;2.30;;
4686;SDS011;2357;47.316;-1.348;2023-04-01T00:20:10;13.37;;;2.73;;
4686;SDS011;2357;47.316;-1.348;2023-04-01T00:22:37;13.43;;;2.80;;
4686;SDS011;2357;47.316;-1.348;2023-04-01T00:25:03;21.90;;;2.83;;
4686;SDS011;2357;47.316;-1.348;2023-04-01T00:27:29;23.80;;;2.43;;
4686;SDS011;2357;47.316;-1.348;2023-04-01T00:29:55;20.10;;;2.90;;
4686;SDS011;2357;47.316;-1.348;2023-04-01T00:32:21;25.47;;;4.00;;
4686;SDS011;2357;47.316;-1.348;2023-04-01T00:34:49;13.17;;;3.00;;
4686;SDS011;2357;47.316;-1.348;2023-04-01T00:37:16;20.13;;;4.30;;
4686;SDS011;2357;47.316;-1.348;2023-04-01T00:39:42;14.70;;;3.27;;
4686;SDS011;2357;47.316;-1.348;2023-04-01T00:42:10;16.47;;;3.50;;
4686;SDS011;2357;47.316;-1.348;2023-04-01T00:44:40;9.73;;;2.87;;
4686;SDS011;2357;47.316;-1.348;2023-04-01T00:47:06;24.53;;;4.00;;
4686;SDS011;2357;47.316;-1.348;2023-04-01T00:49:42;14.23;;;4.10;;
4686;SDS011;2357;47.316;-1.348;2023-04-01T00:52:11;19.60;;;3.37;;
4686;SDS011;2357;47.316;-1.348;2023-04-01T00:54:38;24.03;;;3.17;;
4686;SDS011;2357;47.316;-1.348;2023-04-01T00:57:21;20.63;;;3.30;;
4686;SDS011;2357;47.316;-1.348;2023-04-01T00:59:53;19.97;;;4.43;;
4686;SDS011;2357;47.316;-1.348;2023-04-01T01:02:20;17.73;;;3.77;;
4686;SDS011;2357;47.316;-1.348;2023-04-01T01:04:47;21.10;;;2.23;;
4686;SDS011;2357;47.316;-1.348;2023-04-01T01:10:01;12.30;;;2.80;;
4686;SDS011;2357;47.316;-1.348;2023-04-01T01:12:45;37.10;;;7.13;;
4686;SDS011;2357;47.316;-1.348;2023-04-01T01:15:25;20.17;;;3.30;;
4686;SDS011;2357;47.316;-1.348;2023-04-01T01:25:55;22.30;;;2.60;;
4686;SDS011;2357;47.316;-1.348;2023-04-01T01:34:36;21.93;;;2.40;;
4686;SDS011;2357;47.316;-1.348;2023-04-01T01:37:13;21.43;;;3.40;;
4686;SDS011;2357;47.316;-1.348;2023-04-01T01:39:43;19.67;;;3.80;;
4686;SDS011;2357;47.316;-1.348;2023-04-01T01:42:13;21.40;;;5.17;;
4686;SDS011;2357;47.316;-1.348;2023-04-01T01:44:42;19.20;;;2.70;;
4686;SDS011;2357;47.316;-1.348;2023-04-01T01:47:11;17.00;;;1.87;;
4686;SDS011;2357;47.316;-1.348;2023-04-01T01:49:38;29.07;;;2.97;;
4686;SDS011;2357;47.316;-1.348;2023-04-01T01:52:06;19.00;;;3.50;;
4686;SDS011;2357;47.316;-1.348;2023-04-01T01:54:31;28.03;;;4.00;;
4686;SDS011;2357;47.316;-1.348;2023-04-01T01:57:05;27.13;;;3.43;;
4686;SDS011;2357;47.316;-1.348;2023-04-01T01:59:35;24.57;;;2.37;;
4686;SDS011;2357;47.316;-1.348;2023-04-01T02:02:04;21.03;;;2.30;;
4686;SDS011;2357;47.316;-1.348;2023-04-01T02:04:37;20.00;;;3.43;;
4686;SDS011;2357;47.316;-1.348;2023-04-01T02:07:08;11.23;;;3.03;;
4686;SDS011;2357;47.316;-1.348;2023-04-01T02:09:40;18.67;;;3.90;;
4686;SDS011;2357;47.316;-1.348;2023-04-01T02:12:07;20.17;;;2.80;;
4686;SDS011;2357;47.316;-1.348;2023-04-01T02:17:17;36.33;;;2.90;;
4686;SDS011;2357;47.316;-1.348;2023-04-01T02:19:57;24.37;;;3.20;;
4686;SDS011;2357;47.316;-1.348;2023-04-01T02:22:27;15.43;;;2.73;;
4686;SDS011;2357;47.316;-1.348;2023-04-01T02:25:05;20.53;;;3.30;;
4686;SDS011;2357;47.316;-1.348;2023-04-01T02:27:32;23.70;;;4.60;;
4686;SDS011;2357;47.316;-1.348;2023-04-01T02:29:58;25.50;;;3.83;;
4686;SDS011;2357;47.316;-1.348;2023-04-01T02:32:24;16.83;;;2.70;;
4686;SDS011;2357;47.316;-1.348;2023-04-01T02:34:52;23.43;;;3.70;;
4686;SDS011;2357;47.316;-1.348;2023-04-01T02:37:18;16.00;;;2.70;;
4686;SDS011;2357;47.316;-1.348;2023-04-01T02:39:44;23.70;;;2.10;;
4686;SDS011;2357;47.316;-1.348;2023-04-01T02:42:10;25.97;;;2.70;;
4686;SDS011;2357;47.316;-1.348;2023-04-01T02:44:36;30.60;;;2.10;;
4686;SDS011;2357;47.316;-1.348;2023-04-01T02:47:02;13.50;;;2.43;;
4686;SDS011;2357;47.316;-1.348;2023-04-01T02:49:29;26.27;;;2.90;;
4686;SDS011;2357;47.316;-1.348;2023-04-01T02:51:55;20.10;;;2.30;;
4686;SDS011;2357;47.316;-1.348;2023-04-01T02:54:20;21.37;;;3.40;;
4686;SDS011;2357;47.316;-1.348;2023-04-01T02:56:46;16.13;;;2.63;;
4686;SDS011;2357;47.316;-1.348;2023-04-01T02:59:11;15.63;;;2.40;;
4686;SDS011;2357;47.316;-1.348;2023-04-01T03:01:37;16.03;;;3.13;;
4686;SDS011;2357;47.316;-1.348;2023-04-01T03:04:03;19.13;;;2.87;;
4686;SDS011;2357;47.316;-1.348;2023-04-01T03:06:29;18.93;;;3.17;;
4686;SDS011;2357;47.316;-1.348;2023-04-01T03:08:54;14.17;;;2.70;;
4686;SDS011;2357;47.316;-1.348;2023-04-01T03:11:20;27.53;;;3.00;;
4686;SDS011;2357;47.316;-1.348;2023-04-01T03:13:46;45.03;;;4.83;;
4686;SDS011;2357;47.316;-1.348;2023-04-01T03:16:12;18.07;;;3.37;;
4686;SDS011;2357;47.316;-1.348;2023-04-01T03:18:37;16.53;;;2.73;;
4686;SDS011;2357;47.316;-1.348;2023-04-01T03:21:19;17.27;;;3.37;;
4686;SDS011;2357;47.316;-1.348;2023-04-01T03:23:46;19.20;;;3.57;;
4686;SDS011;2357;47.316;-1.348;2023-04-01T03:26:12;19.07;;;2.20;;
4686;SDS011;2357;47.316;-1.348;2023-04-01T03:28:38;10.80;;;2.67;;
4686;SDS011;2357;47.316;-1.348;2023-04-01T03:31:04;24.77;;;2.67;;
4686;SDS011;2357;47.316;-1.348;2023-04-01T03:33:30;9.47;;;2.40;;
4686;SDS011;2357;47.316;-1.348;2023-04-01T03:35:56;14.33;;;2.33;;
4686;SDS011;2357;47.316;-1.348;2023-04-01T03:38:22;20.00;;;2.03;;
4686;SDS011;2357;47.316;-1.348;2023-04-01T03:40:48;16.67;;;2.37;;
4686;SDS011;2357;47.316;-1.348;2023-04-01T03:43:13;19.67;;;2.37;;
4686;SDS011;2357;47.316;-1.348;2023-04-01T03:45:45;10.93;;;2.60;;
4686;SDS011;2357;47.316;-1.348;2023-04-01T03:48:12;30.67;;;4.00;;
4686;SDS011;2357;47.316;-1.348;2023-04-01T03:50:38;15.40;;;2.07;;
4686;SDS011;2357;47.316;-1.348;2023-04-01T03:53:04;12.47;;;2.10;;
4686;SDS011;2357;47.316;-1.348;2023-04-01T03:55:30;13.43;;;1.83;;
4686;SDS011;2357;47.316;-1.348;2023-04-01T03:57:56;18.53;;;2.40;;
4686;SDS011;2357;47.316;-1.348;2023-04-01T04:00:21;14.07;;;2.30;;
4686;SDS011;2357;47.316;-1.348;2023-04-01T04:02:47;11.40;;;2.23;;
4686;SDS011;2357;47.316;-1.348;2023-04-01T04:05:13;11.83;;;2.53;;
4686;SDS011;2357;47.316;-1.348;2023-04-01T04:07:39;14.63;;;2.17;;
4686;SDS011;2357;47.316;-1.348;2023-04-01T04:10:05;10.80;;;2.10;;
4686;SDS011;2357;47.316;-1.348;2023-04-01T04:12:31;15.50;;;3.00;;
4686;SDS011;2357;47.316;-1.348;2023-04-01T04:14:57;19.13;;;2.13;;
4686;SDS011;2357;47.316;-1.348;2023-04-01T04:17:23;20.83;;;2.10;;
4686;SDS011;2357;47.316;-1.348;2023-04-01T04:19:48;7.63;;;1.37;;
4686;SDS011;2357;47.316;-1.348;2023-04-01T04:22:14;21.53;;;2.87;;
4686;SDS011;2357;47.316;-1.348;2023-04-01T04:24:39;16.53;;;3.00;;
4686;SDS011;2357;47.316;-1.348;2023-04-01T04:27:05;13.20;;;1.87;;
4686;SDS011;2357;47.316;-1.348;2023-04-01T04:29:31;9.77;;;2.00;;
4686;SDS011;2357;47.316;-1.348;2023-04-01T04:31:56;17.63;;;3.33;;
4686;SDS011;2357;47.316;-1.348;2023-04-01T04:34:22;30.77;;;4.20;;
4686;SDS011;2357;47.316;-1.348;2023-04-01T04:36:48;12.70;;;2.37;;
4686;SDS011;2357;47.316;-1.348;2023-04-01T04:39:14;19.77;;;1.93;;
4686;SDS011;2357;47.316;-1.348;2023-04-01T04:41:40;10.70;;;1.80;;
4686;SDS011;2357;47.316;-1.348;2023-04-01T04:44:06;27.80;;;5.47;;
4686;SDS011;2357;47.316;-1.348;2023-04-01T04:46:31;24.57;;;3.00;;
4686;SDS011;2357;47.316;-1.348;2023-04-01T04:48:57;26.57;;;3.40;;
4686;SDS011;2357;47.316;-1.348;2023-04-01T04:51:23;16.40;;;2.27;;
4686;SDS011;2357;47.316;-1.348;2023-04-01T04:53:49;16.80;;;2.20;;
4686;SDS011;2357;47.316;-1.348;2023-04-01T04:56:19;15.73;;;1.87;;
4686;SDS011;2357;47.316;-1.348;2023-04-01T04:58:45;17.83;;;2.70;;
4686;SDS011;2357;47.316;-1.348;2023-04-01T05:01:12;13.77;;;3.13;;
4686;SDS011;2357;47.316;-1.348;2023-04-01T05:03:39;17.83;;;2.83;;
4686;SDS011;2357;47.316;-1.348;2023-04-01T05:06:05;11.77;;;2.00;;
4686;SDS011;2357;47.316;-1.348;2023-04-01T05:08:32;17.70;;;2.40;;
4686;SDS011;2357;47.316;-1.348;2023-04-01T05:10:58;18.40;;;2.00;;
4686;SDS011;2357;47.316;-1.348;2023-04-01T05:13:25;22.03;;;4.20;;
4686;SDS011;2357;47.316;-1.348;2023-04-01T05:15:51;30.57;;;5.90;;
4686;SDS011;2357;47.316;-1.348;2023-04-01T05:18:16;18.00;;;2.80;;
4686;SDS011;2357;47.316;-1.348;2023-04-01T05:20:48;17.57;;;2.57;;
4686;SDS011;2357;47.316;-1.348;2023-04-01T05:23:16;32.07;;;4.50;;
4686;SDS011;2357;47.316;-1.348;2023-04-01T05:25:42;26.07;;;3.17;;
4686;SDS011;2357;47.316;-1.348;2023-04-01T05:28:08;23.03;;;3.37;;
4686;SDS011;2357;47.316;-1.348;2023-04-01T05:30:34;18.70;;;2.63;;
4686;SDS011;2357;47.316;-1.348;2023-04-01T05:32:59;21.60;;;2.30;;
4686;SDS011;2357;47.316;-1.348;2023-04-01T05:35:25;19.73;;;2.67;;
4686;SDS011;2357;47.316;-1.348;2023-04-01T05:37:51;24.47;;;3.60;;
4686;SDS011;2357;47.316;-1.348;2023-04-01T05:40:16;13.73;;;1.87;;
4686;SDS011;2357;47.316;-1.348;2023-04-01T05:42:42;12.00;;;1.60;;
4686;SDS011;2357;47.316;-1.348;2023-04-01T05:45:08;17.60;;;1.73;;
4686;SDS011;2357;47.316;-1.348;2023-04-01T05:47:34;16.30;;;1.70;;
4686;SDS011;2357;47.316;-1.348;2023-04-01T05:50:00;23.03;;;2.70;;
4686;SDS011;2357;47.316;-1.348;2023-04-01T05:52:25;11.20;;;1.70;;
4686;SDS011;2357;47.316;-1.348;2023-04-01T05:54:51;18.53;;;3.30;;
4686;SDS011;2357;47.316;-1.348;2023-04-01T05:57:17;15.90;;;2.83;;
4686;SDS011;2357;47.316;-1.348;2023-04-01T05:59:43;20.27;;;2.47;;
4686;SDS011;2357;47.316;-1.348;2023-04-01T06:02:08;26.07;;;3.47;;
4686;SDS011;2357;47.316;-1.348;2023-04-01T06:04:37;15.30;;;1.93;;
4686;SDS011;2357;47.316;-1.348;2023-04-01T06:07:10;19.93;;;2.90;;
4686;SDS011;2357;47.316;-1.348;2023-04-01T06:09:37;27.73;;;3.93;;
4686;SDS011;2357;47.316;-1.348;2023-04-01T06:14:51;20.90;;;2.20;;
4686;SDS011;2357;47.316;-1.348;2023-04-01T06:17:46;17.93;;;2.87;;
4686;SDS011;2357;47.316;-1.348;2023-04-01T06:28:44;17.47;;;2.90;;
4686;SDS011;2357;47.316;-1.348;2023-04-01T06:39:47;9.77;;;2.73;;
4686;SDS011;2357;47.316;-1.348;2023-04-01T06:53:40;14.17;;;1.90;;
4686;SDS011;2357;47.316;-1.348;2023-04-01T06:56:28;29.63;;;2.93;;
4686;SDS011;2357;47.316;-1.348;2023-04-01T06:59:02;21.23;;;2.07;;
4686;SDS011;2357;47.316;-1.348;2023-04-01T07:01:39;14.00;;;2.07;;
4686;SDS011;2357;47.316;-1.348;2023-04-01T07:06:47;25.10;;;4.00;;
4686;SDS011;2357;47.316;-1.348;2023-04-01T07:09:24;15.50;;;2.17;;
4686;SDS011;2357;47.316;-1.348;2023-04-01T07:11:53;14.57;;;2.57;;
4686;SDS011;2357;47.316;-1.348;2023-04-01T07:25:02;19.90;;;2.27;;
4686;SDS011;2357;47.316;-1.348;2023-04-01T07:27:37;15.70;;;1.50;;
4686;SDS011;2357;47.316;-1.348;2023-04-01T07:30:06;11.07;;;1.80;;
4686;SDS011;2357;47.316;-1.348;2023-04-01T07:32:49;7.17;;;1.50;;
4686;SDS011;2357;47.316;-1.348;2023-04-01T07:43:44;10.87;;;1.47;;
4686;SDS011;2357;47.316;-1.348;2023-04-01T07:46:39;18.73;;;2.47;;
4686;SDS011;2357;47.316;-1.348;2023-04-01T07:49:17;13.83;;;2.27;;
4686;SDS011;2357;47.316;-1.348;2023-04-01T07:59:25;28.83;;;2.50;;
4686;SDS011;2357;47.316;-1.348;2023-04-01T08:02:10;17.23;;;2.27;;
4686;SDS011;2357;47.316;-1.348;2023-04-01T08:07:18;12.87;;;1.80;;
4686;SDS011;2357;47.316;-1.348;2023-04-01T08:10:07;7.50;;;1.30;;
4686;SDS011;2357;47.316;-1.348;2023-04-01T08:13:00;14.93;;;2.83;;
4686;SDS011;2357;47.316;-1.348;2023-04-01T08:15:54;10.60;;;2.50;;
4686;SDS011;2357;47.316;-1.348;2023-04-01T08:18:50;14.30;;;1.63;;
4686;SDS011;2357;47.316;-1.348;2023-04-01T08:21:28;13.73;;;1.70;;
4686;SDS011;2357;47.316;-1.348;2023-04-01T08:23:57;17.23;;;2.10;;
4686;SDS011;2357;47.316;-1.348;2023-04-01T08:29:15;10.20;;;1.27;;
4686;SDS011;2357;47.316;-1.348;2023-04-01T08:34:37;6.03;;;0.93;;
4686;SDS011;2357;47.316;-1.348;2023-04-01T08:37:15;7.73;;;1.90;;
4686;SDS011;2357;47.316;-1.348;2023-04-01T08:39:48;8.37;;;1.80;;
4686;SDS011;2357;47.316;-1.348;2023-04-01T08:50:57;8.20;;;1.40;;
4686;SDS011;2357;47.316;-1.348;2023-04-01T08:57:04;16.67;;;1.60;;
4686;SDS011;2357;47.316;-1.348;2023-04-01T08:59:40;8.13;;;1.63;;
4686;SDS011;2357;47.316;-1.348;2023-04-01T09:07:57;12.60;;;1.47;;
4686;SDS011;2357;47.316;-1.348;2023-04-01T09:27:44;11.23;;;1.23;;
4686;SDS011;2357;47.316;-1.348;2023-04-01T09:30:41;12.67;;;1.40;;
4686;SDS011;2357;47.316;-1.348;2023-04-01T09:36:38;9.37;;;2.00;;
4686;SDS011;2357;47.316;-1.348;2023-04-01T09:44:36;7.93;;;1.37;;
4686;SDS011;2357;47.316;-1.348;2023-04-01T09:52:55;4.07;;;1.07;;
4686;SDS011;2357;47.316;-1.348;2023-04-01T10:10:17;5.90;;;0.80;;
4686;SDS011;2357;47.316;-1.348;2023-04-01T10:30:02;10.63;;;0.80;;
4686;SDS011;2357;47.316;-1.348;2023-04-01T10:32:58;6.80;;;0.97;;
4686;SDS011;2357;47.316;-1.348;2023-04-01T10:38:59;5.63;;;1.20;;
4686;SDS011;2357;47.316;-1.348;2023-04-01T10:49:41;14.77;;;1.27;;
4686;SDS011;2357;47.316;-1.348;2023-04-01T11:12:12;3.13;;;0.73;;
4686;SDS011;2357;47.316;-1.348;2023-04-01T11:26:42;2.27;;;0.60;;
4686;SDS011;2357;47.316;-1.348;2023-04-01T11:31:52;2.93;;;0.60;;
4686;SDS011;2357;47.316;-1.348;2023-04-01T11:53:25;8.67;;;1.40;;
4686;SDS011;2357;47.316;-1.348;2023-04-01T12:04:27;10.67;;;0.97;;
4686;SDS011;2357;47.316;-1.348;2023-04-01T12:15:05;4.80;;;1.13;;
4686;SDS011;2357;47.316;-1.348;2023-04-01T12:17:50;6.50;;;1.03;;
4686;SDS011;2357;47.316;-1.348;2023-04-01T12:20:30;2.67;;;0.90;;
4686;SDS011;2357;47.316;-1.348;2023-04-01T12:31:27;5.37;;;0.80;;
4686;SDS011;2357;47.316;-1.348;2023-04-01T12:36:59;4.53;;;0.70;;
4686;SDS011;2357;47.316;-1.348;2023-04-01T12:42:35;4.20;;;0.77;;
4686;SDS011;2357;47.316;-1.348;2023-04-01T12:45:27;1.50;;;0.50;;
4686;SDS011;2357;47.316;-1.348;2023-04-01T12:56:31;3.20;;;0.80;;
4686;SDS011;2357;47.316;-1.348;2023-04-01T12:59:43;4.30;;;1.00;;
4686;SDS011;2357;47.316;-1.348;2023-04-01T13:24:31;6.43;;;1.00;;
4686;SDS011;2357;47.316;-1.348;2023-04-01T13:27:21;7.70;;;1.70;;
4686;SDS011;2357;47.316;-1.348;2023-04-01T13:35:50;5.57;;;1.10;;
4686;SDS011;2357;47.316;-1.348;2023-04-01T13:44:16;8.37;;;1.67;;
4686;SDS011;2357;47.316;-1.348;2023-04-01T13:55:00;5.10;;;0.80;;
4686;SDS011;2357;47.316;-1.348;2023-04-01T14:00:00;7.30;;;1.00;;
4686;SDS011;2357;47.316;-1.348;2023-04-01T14:13:31;9.50;;;1.73;;
4686;SDS011;2357;47.316;-1.348;2023-04-01T14:18:50;11.10;;;1.80;;
4686;SDS011;2357;47.316;-1.348;2023-04-01T14:32:59;2.63;;;1.80;;
4686;SDS011;2357;47.316;-1.348;2023-04-01T14:47:19;10.53;;;1.00;;
4686;SDS011;2357;47.316;-1.348;2023-04-01T14:52:36;1.70;;;1.00;;
4686;SDS011;2357;47.316;-1.348;2023-04-01T14:55:18;8.30;;;1.07;;
4686;SDS011;2357;47.316;-1.348;2023-04-01T15:00:54;1.80;;;0.70;;
4686;SDS011;2357;47.316;-1.348;2023-04-01T15:04:04;4.30;;;0.53;;
4686;SDS011;2357;47.316;-1.348;2023-04-01T15:09:26;6.93;;;1.23;;
4686;SDS011;2357;47.316;-1.348;2023-04-01T15:14:46;6.30;;;1.50;;
4686;SDS011;2357;47.316;-1.348;2023-04-01T15:25:43;10.00;;;1.20;;
4686;SDS011;2357;47.316;-1.348;2023-04-01T15:28:16;16.70;;;1.70;;
4686;SDS011;2357;47.316;-1.348;2023-04-01T15:35:52;6.23;;;2.07;;
4686;SDS011;2357;47.316;-1.348;2023-04-01T15:43:48;5.60;;;1.63;;
4686;SDS011;2357;47.316;-1.348;2023-04-01T15:56:56;6.13;;;1.00;;
4686;SDS011;2357;47.316;-1.348;2023-04-01T16:16:25;3.40;;;0.90;;
4686;SDS011;2357;47.316;-1.348;2023-04-01T16:38:43;2.50;;;0.97;;
4686;SDS011;2357;47.316;-1.348;2023-04-01T16:41:20;3.10;;;0.80;;
4686;SDS011;2357;47.316;-1.348;2023-04-01T16:44:05;3.27;;;0.97;;
4686;SDS011;2357;47.316;-1.348;2023-04-01T16:47:08;3.80;;;0.80;;
4686;SDS011;2357;47.316;-1.348;2023-04-01T16:52:13;12.10;;;1.57;;
4686;SDS011;2357;47.316;-1.348;2023-04-01T16:54:54;6.63;;;1.63;;
4686;SDS011;2357;47.316;-1.348;2023-04-01T16:57:37;7.67;;;1.93;;
4686;SDS011;2357;47.316;-1.348;2023-04-01T17:02:47;14.10;;;2.60;;
4686;SDS011;2357;47.316;-1.348;2023-04-01T17:05:17;18.37;;;1.40;;
4686;SDS011;2357;47.316;-1.348;2023-04-01T17:16:12;14.13;;;2.43;;
4686;SDS011;2357;47.316;-1.348;2023-04-01T17:30:42;10.73;;;2.37;;
4686;SDS011;2357;47.316;-1.348;2023-04-01T17:33:13;19.63;;;2.67;;
4686;SDS011;2357;47.316;-1.348;2023-04-01T17:49:52;6.87;;;2.10;;
4686;SDS011;2357;47.316;-1.348;2023-04-01T17:52:43;15.47;;;2.17;;
4686;SDS011;2357;47.316;-1.348;2023-04-01T17:58:18;11.50;;;1.63;;
4686;SDS011;2357;47.316;-1.348;2023-04-01T18:09:41;17.57;;;2.40;;
4686;SDS011;2357;47.316;-1.348;2023-04-01T18:17:17;18.13;;;1.93;;
4686;SDS011;2357;47.316;-1.348;2023-04-01T18:22:40;18.13;;;3.30;;
4686;SDS011;2357;47.316;-1.348;2023-04-01T18:25:27;5.47;;;1.63;;
4686;SDS011;2357;47.316;-1.348;2023-04-01T18:41:59;19.83;;;2.30;;
4686;SDS011;2357;47.316;-1.348;2023-04-01T18:45:00;9.90;;;1.90;;
4686;SDS011;2357;47.316;-1.348;2023-04-01T18:47:51;12.40;;;2.77;;
4686;SDS011;2357;47.316;-1.348;2023-04-01T18:53:09;7.07;;;1.57;;
4686;SDS011;2357;47.316;-1.348;2023-04-01T19:09:31;16.60;;;3.30;;
4686;SDS011;2357;47.316;-1.348;2023-04-01T19:17:38;5.33;;;1.57;;
4686;SDS011;2357;47.316;-1.348;2023-04-01T19:23:56;10.90;;;3.63;;
4686;SDS011;2357;47.316;-1.348;2023-04-01T19:26:46;7.50;;;1.73;;
4686;SDS011;2357;47.316;-1.348;2023-04-01T19:37:53;8.90;;;2.60;;
4686;SDS011;2357;47.316;-1.348;2023-04-01T19:46:25;13.23;;;1.53;;
4686;SDS011;2357;47.316;-1.348;2023-04-01T19:49:06;7.17;;;1.93;;
4686;SDS011;2357;47.316;-1.348;2023-04-01T19:52:14;9.70;;;1.90;;
4686;SDS011;2357;47.316;-1.348;2023-04-01T20:03:04;12.23;;;1.50;;
4686;SDS011;2357;47.316;-1.348;2023-04-01T20:08:12;7.93;;;2.03;;
4686;SDS011;2357;47.316;-1.348;2023-04-01T20:11:01;6.43;;;1.30;;
4686;SDS011;2357;47.316;-1.348;2023-04-01T20:13:43;8.50;;;1.60;;
4686;SDS011;2357;47.316;-1.348;2023-04-01T20:17:07;13.50;;;1.80;;
4686;SDS011;2357;47.316;-1.348;2023-04-01T20:19:28;12.70;;;1.70;;
4686;SDS011;2357;47.316;-1.348;2023-04-01T20:21:56;9.30;;;1.70;;
4686;SDS011;2357;47.316;-1.348;2023-04-01T20:24:35;4.80;;;1.47;;
4686;SDS011;2357;47.316;-1.348;2023-04-01T20:40:51;10.17;;;1.70;;
4686;SDS011;2357;47.316;-1.348;2023-04-01T20:43:33;2.37;;;1.60;;
4686;SDS011;2357;47.316;-1.348;2023-04-01T20:51:32;5.27;;;1.30;;
4686;SDS011;2357;47.316;-1.348;2023-04-01T21:08:00;2.47;;;1.37;;
4686;SDS011;2357;47.316;-1.348;2023-04-01T21:36:03;1.33;;;0.80;;
4686;SDS011;2357;47.316;-1.348;2023-04-01T21:49:47;9.77;;;0.80;;
4686;SDS011;2357;47.316;-1.348;2023-04-01T21:53:19;1.47;;;1.20;;
4686;SDS011;2357;47.316;-1.348;2023-04-01T22:03:47;4.87;;;1.10;;
4686;SDS011;2357;47.316;-1.348;2023-04-01T22:09:28;2.80;;;0.90;;
4686;SDS011;2357;47.316;-1.348;2023-04-01T22:12:27;4.07;;;1.17;;
4686;SDS011;2357;47.316;-1.348;2023-04-01T22:17:41;4.83;;;1.10;;
4686;SDS011;2357;47.316;-1.348;2023-04-01T22:31:02;2.90;;;1.43;;
4686;SDS011;2357;47.316;-1.348;2023-04-01T22:33:34;0.80;;;0.80;;
4686;SDS011;2357;47.316;-1.348;2023-04-01T22:44:05;2.30;;;0.80;;
4686;SDS011;2357;47.316;-1.348;2023-04-01T22:47:00;3.70;;;0.93;;
4686;SDS011;2357;47.316;-1.348;2023-04-01T22:52:11;0.60;;;0.60;;
4686;SDS011;2357;47.316;-1.348;2023-04-01T22:54:56;2.63;;;1.63;;
4686;SDS011;2357;47.316;-1.348;2023-04-01T23:00:00;2.97;;;2.03;;
4686;SDS011;2357;47.316;-1.348;2023-04-01T23:02:33;8.63;;;1.80;;
4686;SDS011;2357;47.316;-1.348;2023-04-01T23:05:08;1.30;;;0.73;;
4686;SDS011;2357;47.316;-1.348;2023-04-01T23:07:40;2.27;;;0.70;;
4686;SDS011;2357;47.316;-1.348;2023-04-01T23:10:53;15.73;;;1.00;;
4686;SDS011;2357;47.316;-1.348;2023-04-01T23:13:05;2.33;;;1.10;;
4686;SDS011;2357;47.316;-1.348;2023-04-01T23:15:38;3.00;;;1.00;;
4686;SDS011;2357;47.316;-1.348;2023-04-01T23:23:20;4.70;;;0.90;;
4686;SDS011;2357;47.316;-1.348;2023-04-01T23:28:47;5.60;;;1.00;;
4686;SDS011;2357;47.316;-1.348;2023-04-01T23:31:25;2.20;;;0.67;;
4686;SDS011;2357;47.316;-1.348;2023-04-01T23:34:01;3.47;;;0.77;;
4686;SDS011;2357;47.316;-1.348;2023-04-01T23:36:29;2.70;;;0.70;;
4686;SDS011;2357;47.316;-1.348;2023-04-01T23:38:56;3.07;;;0.83;;
4686;SDS011;2357;47.316;-1.348;2023-04-01T23:41:28;4.50;;;0.83;;
4686;SDS011;2357;47.316;-1.348;2023-04-01T23:44:01;2.40;;;0.87;;
4686;SDS011;2357;47.316;-1.348;2023-04-01T23:46:34;2.73;;;0.83;;
4686;SDS011;2357;47.316;-1.348;2023-04-01T23:49:02;4.43;;;0.90;;
4686;SDS011;2357;47.316;-1.348;2023-04-01T23:51:36;2.73;;;0.60;;
4686;SDS011;2357;47.316;-1.348;2023-04-01T23:54:13;1.00;;;0.53;;
4686;SDS011;2357;47.316;-1.348;2023-04-01T23:56:51;1.67;;;1.07;;
4686;SDS011;2357;47.316;-1.348;2023-04-01T23:59:23;11.53;;;2.30;;
